sensor_id;sensor_type;location;lat;lon;timestamp;P1;durP1;ratioP1;P2;durP2;ratioP2
83929;SDS011;73959;52.130;5.584;2024-02-04T00:00:35;35.80;;;20.75;;
83929;SDS011;73959;52.130;5.584;2024-02-04T00:03:02;35.78;;;20.50;;
83929;SDS011;73959;52.130;5.584;2024-02-04T00:05:28;37.10;;;20.95;;
83929;SDS011;73959;52.130;5.584;2024-02-04T00:07:54;34.45;;;20.25;;
83929;SDS011;73959;52.130;5.584;2024-02-04T00:10:20;37.63;;;20.70;;
83929;SDS011;73959;52.130;5.584;2024-02-04T00:12:46;37.95;;;21.83;;
83929;SDS011;73959;52.130;5.584;2024-02-04T00:15:12;38.72;;;23.40;;
83929;SDS011;73959;52.130;5.584;2024-02-04T00:17:38;35.30;;;20.25;;
83929;SDS011;73959;52.130;5.584;2024-02-04T00:20:04;29.80;;;19.58;;
83929;SDS011;73959;52.130;5.584;2024-02-04T00:22:31;30.30;;;18.02;;
83929;SDS011;73959;52.130;5.584;2024-02-04T00:24:58;23.35;;;15.65;;
83929;SDS011;73959;52.130;5.584;2024-02-04T00:27:29;22.95;;;13.75;;
83929;SDS011;73959;52.130;5.584;2024-02-04T00:29:55;20.27;;;13.50;;
83929;SDS011;73959;52.130;5.584;2024-02-04T00:32:21;20.77;;;12.27;;
83929;SDS011;73959;52.130;5.584;2024-02-04T00:34:47;17.10;;;10.68;;
83929;SDS011;73959;52.130;5.584;2024-02-04T00:37:13;14.55;;;9.52;;
83929;SDS011;73959;52.130;5.584;2024-02-04T00:39:39;16.98;;;9.98;;
83929;SDS011;73959;52.130;5.584;2024-02-04T00:42:05;15.55;;;9.02;;
83929;SDS011;73959;52.130;5.584;2024-02-04T00:44:31;16.88;;;9.60;;
83929;SDS011;73959;52.130;5.584;2024-02-04T00:46:57;13.80;;;9.07;;
83929;SDS011;73959;52.130;5.584;2024-02-04T00:49:23;15.75;;;9.00;;
83929;SDS011;73959;52.130;5.584;2024-02-04T00:51:49;14.38;;;8.63;;
83929;SDS011;73959;52.130;5.584;2024-02-04T00:54:15;14.50;;;8.55;;
83929;SDS011;73959;52.130;5.584;2024-02-04T00:56:41;16.65;;;8.63;;
83929;SDS011;73959;52.130;5.584;2024-02-04T00:59:07;14.68;;;8.35;;
83929;SDS011;73959;52.130;5.584;2024-02-04T01:01:33;16.02;;;8.45;;
83929;SDS011;73959;52.130;5.584;2024-02-04T01:03:59;15.13;;;9.98;;
83929;SDS011;73959;52.130;5.584;2024-02-04T01:06:24;18.60;;;10.85;;
83929;SDS011;73959;52.130;5.584;2024-02-04T01:08:51;19.88;;;10.20;;
83929;SDS011;73959;52.130;5.584;2024-02-04T01:11:16;16.55;;;10.88;;
83929;SDS011;73959;52.130;5.584;2024-02-04T01:13:42;24.83;;;12.18;;
83929;SDS011;73959;52.130;5.584;2024-02-04T01:16:09;24.73;;;14.20;;
83929;SDS011;73959;52.130;5.584;2024-02-04T01:18:35;25.15;;;13.98;;
83929;SDS011;73959;52.130;5.584;2024-02-04T01:21:00;32.10;;;14.93;;
83929;SDS011;73959;52.130;5.584;2024-02-04T01:23:26;31.90;;;15.75;;
83929;SDS011;73959;52.130;5.584;2024-02-04T01:25:52;31.10;;;15.52;;
83929;SDS011;73959;52.130;5.584;2024-02-04T01:28:18;31.58;;;16.23;;
83929;SDS011;73959;52.130;5.584;2024-02-04T01:30:44;33.05;;;15.65;;
83929;SDS011;73959;52.130;5.584;2024-02-04T01:33:10;29.42;;;14.88;;
83929;SDS011;73959;52.130;5.584;2024-02-04T01:35:36;34.85;;;16.38;;
83929;SDS011;73959;52.130;5.584;2024-02-04T01:38:02;26.60;;;13.98;;
83929;SDS011;73959;52.130;5.584;2024-02-04T01:40:28;30.63;;;15.77;;
83929;SDS011;73959;52.130;5.584;2024-02-04T01:42:54;32.13;;;15.70;;
83929;SDS011;73959;52.130;5.584;2024-02-04T01:45:21;30.35;;;15.95;;
83929;SDS011;73959;52.130;5.584;2024-02-04T01:47:47;32.20;;;15.77;;
83929;SDS011;73959;52.130;5.584;2024-02-04T01:50:13;35.35;;;14.90;;
83929;SDS011;73959;52.130;5.584;2024-02-04T01:52:39;33.15;;;15.30;;
83929;SDS011;73959;52.130;5.584;2024-02-04T01:55:07;28.98;;;13.70;;
83929;SDS011;73959;52.130;5.584;2024-02-04T01:57:34;36.63;;;14.98;;
83929;SDS011;73959;52.130;5.584;2024-02-04T02:00:00;26.98;;;13.27;;
83929;SDS011;73959;52.130;5.584;2024-02-04T02:02:27;27.05;;;12.55;;
83929;SDS011;73959;52.130;5.584;2024-02-04T02:04:53;27.77;;;11.63;;
83929;SDS011;73959;52.130;5.584;2024-02-04T02:07:20;29.42;;;13.10;;
83929;SDS011;73959;52.130;5.584;2024-02-04T02:09:46;25.17;;;11.00;;
83929;SDS011;73959;52.130;5.584;2024-02-04T02:12:33;27.05;;;11.60;;
83929;SDS011;73959;52.130;5.584;2024-02-04T02:15:11;24.63;;;11.60;;
83929;SDS011;73959;52.130;5.584;2024-02-04T02:18:02;25.33;;;10.68;;
83929;SDS011;73959;52.130;5.584;2024-02-04T02:23:03;20.13;;;9.55;;
83929;SDS011;73959;52.130;5.584;2024-02-04T02:25:32;22.88;;;9.43;;
83929;SDS011;73959;52.130;5.584;2024-02-04T02:27:59;18.17;;;8.07;;
83929;SDS011;73959;52.130;5.584;2024-02-04T02:30:25;18.83;;;9.05;;
83929;SDS011;73959;52.130;5.584;2024-02-04T02:32:51;17.85;;;8.82;;
83929;SDS011;73959;52.130;5.584;2024-02-04T02:35:17;25.35;;;9.18;;
83929;SDS011;73959;52.130;5.584;2024-02-04T02:37:44;21.40;;;9.45;;
83929;SDS011;73959;52.130;5.584;2024-02-04T02:42:44;21.55;;;9.70;;
83929;SDS011;73959;52.130;5.584;2024-02-04T02:45:10;18.90;;;9.18;;
83929;SDS011;73959;52.130;5.584;2024-02-04T02:47:38;19.13;;;10.20;;
83929;SDS011;73959;52.130;5.584;2024-02-04T02:50:05;27.38;;;11.15;;
83929;SDS011;73959;52.130;5.584;2024-02-04T02:52:31;23.17;;;10.45;;
83929;SDS011;73959;52.130;5.584;2024-02-04T02:54:57;24.70;;;10.88;;
83929;SDS011;73959;52.130;5.584;2024-02-04T02:57:23;22.92;;;10.98;;
83929;SDS011;73959;52.130;5.584;2024-02-04T02:59:49;22.45;;;10.27;;
83929;SDS011;73959;52.130;5.584;2024-02-04T03:02:15;22.35;;;11.30;;
83929;SDS011;73959;52.130;5.584;2024-02-04T03:04:41;16.52;;;9.82;;
83929;SDS011;73959;52.130;5.584;2024-02-04T03:07:07;23.98;;;10.60;;
83929;SDS011;73959;52.130;5.584;2024-02-04T03:09:33;24.15;;;10.93;;
83929;SDS011;73959;52.130;5.584;2024-02-04T03:11:59;25.23;;;11.35;;
83929;SDS011;73959;52.130;5.584;2024-02-04T03:14:25;25.55;;;12.05;;
83929;SDS011;73959;52.130;5.584;2024-02-04T03:16:51;27.20;;;12.30;;
83929;SDS011;73959;52.130;5.584;2024-02-04T03:19:17;20.85;;;11.05;;
83929;SDS011;73959;52.130;5.584;2024-02-04T03:21:43;23.70;;;13.30;;
83929;SDS011;73959;52.130;5.584;2024-02-04T03:24:09;23.75;;;12.43;;
83929;SDS011;73959;52.130;5.584;2024-02-04T03:26:35;27.60;;;11.98;;
83929;SDS011;73959;52.130;5.584;2024-02-04T03:29:01;24.13;;;12.55;;
83929;SDS011;73959;52.130;5.584;2024-02-04T03:31:29;32.15;;;13.38;;
83929;SDS011;73959;52.130;5.584;2024-02-04T03:33:55;24.98;;;12.05;;
83929;SDS011;73959;52.130;5.584;2024-02-04T03:36:22;28.02;;;13.68;;
83929;SDS011;73959;52.130;5.584;2024-02-04T03:38:48;25.75;;;11.95;;
83929;SDS011;73959;52.130;5.584;2024-02-04T03:41:14;22.35;;;11.98;;
83929;SDS011;73959;52.130;5.584;2024-02-04T03:43:40;20.30;;;10.35;;
83929;SDS011;73959;52.130;5.584;2024-02-04T03:46:06;18.42;;;9.07;;
83929;SDS011;73959;52.130;5.584;2024-02-04T03:48:32;21.83;;;8.75;;
83929;SDS011;73959;52.130;5.584;2024-02-04T03:51:00;19.27;;;8.80;;
83929;SDS011;73959;52.130;5.584;2024-02-04T03:53:26;17.55;;;8.68;;
83929;SDS011;73959;52.130;5.584;2024-02-04T03:55:52;18.05;;;7.32;;
83929;SDS011;73959;52.130;5.584;2024-02-04T03:58:19;16.92;;;7.35;;
83929;SDS011;73959;52.130;5.584;2024-02-04T04:00:54;20.92;;;7.60;;
83929;SDS011;73959;52.130;5.584;2024-02-04T04:03:20;16.65;;;5.68;;
83929;SDS011;73959;52.130;5.584;2024-02-04T04:05:46;17.27;;;5.53;;
83929;SDS011;73959;52.130;5.584;2024-02-04T04:08:12;14.38;;;6.45;;
83929;SDS011;73959;52.130;5.584;2024-02-04T04:10:38;14.85;;;6.00;;
83929;SDS011;73959;52.130;5.584;2024-02-04T04:13:04;14.43;;;5.05;;
83929;SDS011;73959;52.130;5.584;2024-02-04T04:15:30;12.52;;;4.90;;
83929;SDS011;73959;52.130;5.584;2024-02-04T04:17:56;10.65;;;4.32;;
83929;SDS011;73959;52.130;5.584;2024-02-04T04:20:22;14.75;;;4.45;;
83929;SDS011;73959;52.130;5.584;2024-02-04T04:22:48;13.43;;;4.43;;
83929;SDS011;73959;52.130;5.584;2024-02-04T04:25:14;11.75;;;4.57;;
83929;SDS011;73959;52.130;5.584;2024-02-04T04:27:41;12.85;;;4.60;;
83929;SDS011;73959;52.130;5.584;2024-02-04T04:30:07;10.35;;;4.05;;
83929;SDS011;73959;52.130;5.584;2024-02-04T04:32:33;12.93;;;4.35;;
83929;SDS011;73959;52.130;5.584;2024-02-04T04:34:59;12.48;;;4.10;;
83929;SDS011;73959;52.130;5.584;2024-02-04T04:37:25;18.20;;;4.90;;
83929;SDS011;73959;52.130;5.584;2024-02-04T04:39:51;12.18;;;4.43;;
83929;SDS011;73959;52.130;5.584;2024-02-04T04:42:17;17.63;;;4.93;;
83929;SDS011;73959;52.130;5.584;2024-02-04T04:44:43;16.98;;;5.82;;
83929;SDS011;73959;52.130;5.584;2024-02-04T04:47:09;22.55;;;6.13;;
83929;SDS011;73959;52.130;5.584;2024-02-04T04:49:35;14.18;;;5.97;;
83929;SDS011;73959;52.130;5.584;2024-02-04T04:52:01;15.02;;;5.50;;
83929;SDS011;73959;52.130;5.584;2024-02-04T04:54:27;13.07;;;5.95;;
83929;SDS011;73959;52.130;5.584;2024-02-04T04:56:53;15.20;;;6.18;;
83929;SDS011;73959;52.130;5.584;2024-02-04T04:59:19;17.95;;;6.70;;
83929;SDS011;73959;52.130;5.584;2024-02-04T05:01:46;11.73;;;6.15;;
83929;SDS011;73959;52.130;5.584;2024-02-04T05:04:11;16.17;;;6.80;;
83929;SDS011;73959;52.130;5.584;2024-02-04T05:06:37;16.67;;;6.35;;
83929;SDS011;73959;52.130;5.584;2024-02-04T05:09:04;14.13;;;6.32;;
83929;SDS011;73959;52.130;5.584;2024-02-04T05:11:29;14.88;;;6.93;;
83929;SDS011;73959;52.130;5.584;2024-02-04T05:13:55;18.90;;;6.32;;
83929;SDS011;73959;52.130;5.584;2024-02-04T05:16:21;15.68;;;5.75;;
83929;SDS011;73959;52.130;5.584;2024-02-04T05:18:47;15.80;;;6.13;;
83929;SDS011;73959;52.130;5.584;2024-02-04T05:21:13;15.65;;;6.32;;
83929;SDS011;73959;52.130;5.584;2024-02-04T05:23:39;14.43;;;5.70;;
83929;SDS011;73959;52.130;5.584;2024-02-04T05:26:05;15.98;;;5.38;;
83929;SDS011;73959;52.130;5.584;2024-02-04T05:28:31;14.60;;;5.30;;
83929;SDS011;73959;52.130;5.584;2024-02-04T05:30:57;14.60;;;5.47;;
83929;SDS011;73959;52.130;5.584;2024-02-04T05:33:23;15.65;;;6.30;;
83929;SDS011;73959;52.130;5.584;2024-02-04T05:35:49;11.90;;;5.20;;
83929;SDS011;73959;52.130;5.584;2024-02-04T05:38:18;15.65;;;5.20;;
83929;SDS011;73959;52.130;5.584;2024-02-04T05:40:44;14.43;;;5.30;;
83929;SDS011;73959;52.130;5.584;2024-02-04T05:43:10;15.05;;;5.78;;
83929;SDS011;73959;52.130;5.584;2024-02-04T05:45:39;16.83;;;5.57;;
83929;SDS011;73959;52.130;5.584;2024-02-04T05:48:06;14.35;;;6.05;;
83929;SDS011;73959;52.130;5.584;2024-02-04T05:50:32;12.75;;;6.57;;
83929;SDS011;73959;52.130;5.584;2024-02-04T05:52:58;15.35;;;6.55;;
83929;SDS011;73959;52.130;5.584;2024-02-04T05:55:24;19.00;;;7.72;;
83929;SDS011;73959;52.130;5.584;2024-02-04T05:57:50;15.30;;;6.40;;
83929;SDS011;73959;52.130;5.584;2024-02-04T06:00:16;16.88;;;7.45;;
83929;SDS011;73959;52.130;5.584;2024-02-04T06:02:43;16.80;;;7.18;;
83929;SDS011;73959;52.130;5.584;2024-02-04T06:05:09;16.45;;;6.95;;
83929;SDS011;73959;52.130;5.584;2024-02-04T06:07:35;15.98;;;6.97;;
83929;SDS011;73959;52.130;5.584;2024-02-04T06:10:01;12.63;;;5.60;;
83929;SDS011;73959;52.130;5.584;2024-02-04T06:12:28;11.70;;;5.72;;
83929;SDS011;73959;52.130;5.584;2024-02-04T06:14:54;13.63;;;6.07;;
83929;SDS011;73959;52.130;5.584;2024-02-04T06:17:20;14.63;;;5.40;;
83929;SDS011;73959;52.130;5.584;2024-02-04T06:19:46;15.77;;;6.55;;
83929;SDS011;73959;52.130;5.584;2024-02-04T06:22:12;10.77;;;5.20;;
83929;SDS011;73959;52.130;5.584;2024-02-04T06:24:38;15.55;;;5.50;;
83929;SDS011;73959;52.130;5.584;2024-02-04T06:27:05;12.88;;;5.50;;
83929;SDS011;73959;52.130;5.584;2024-02-04T06:29:31;15.98;;;6.88;;
83929;SDS011;73959;52.130;5.584;2024-02-04T06:31:57;15.38;;;6.47;;
83929;SDS011;73959;52.130;5.584;2024-02-04T06:34:23;12.02;;;6.30;;
83929;SDS011;73959;52.130;5.584;2024-02-04T06:36:49;18.00;;;6.80;;
83929;SDS011;73959;52.130;5.584;2024-02-04T06:39:16;17.27;;;7.18;;
83929;SDS011;73959;52.130;5.584;2024-02-04T06:41:41;12.90;;;7.13;;
83929;SDS011;73959;52.130;5.584;2024-02-04T06:44:07;16.00;;;7.93;;
83929;SDS011;73959;52.130;5.584;2024-02-04T06:46:33;16.75;;;8.38;;
83929;SDS011;73959;52.130;5.584;2024-02-04T06:48:59;20.30;;;9.40;;
83929;SDS011;73959;52.130;5.584;2024-02-04T06:51:26;17.83;;;9.38;;
83929;SDS011;73959;52.130;5.584;2024-02-04T06:53:52;23.33;;;11.13;;
83929;SDS011;73959;52.130;5.584;2024-02-04T06:56:18;18.70;;;10.57;;
83929;SDS011;73959;52.130;5.584;2024-02-04T06:58:44;23.13;;;11.25;;
83929;SDS011;73959;52.130;5.584;2024-02-04T07:01:11;23.40;;;12.27;;
83929;SDS011;73959;52.130;5.584;2024-02-04T07:03:37;26.13;;;13.07;;
83929;SDS011;73959;52.130;5.584;2024-02-04T07:06:03;23.52;;;12.55;;
83929;SDS011;73959;52.130;5.584;2024-02-04T07:08:30;20.23;;;12.77;;
83929;SDS011;73959;52.130;5.584;2024-02-04T07:10:56;19.90;;;10.02;;
83929;SDS011;73959;52.130;5.584;2024-02-04T07:13:22;22.38;;;11.02;;
83929;SDS011;73959;52.130;5.584;2024-02-04T07:15:48;18.70;;;9.35;;
83929;SDS011;73959;52.130;5.584;2024-02-04T07:18:14;21.48;;;10.95;;
83929;SDS011;73959;52.130;5.584;2024-02-04T07:20:41;20.40;;;11.35;;
83929;SDS011;73959;52.130;5.584;2024-02-04T07:23:07;20.52;;;11.32;;
83929;SDS011;73959;52.130;5.584;2024-02-04T07:25:33;25.55;;;12.45;;
83929;SDS011;73959;52.130;5.584;2024-02-04T07:28:00;25.85;;;13.60;;
83929;SDS011;73959;52.130;5.584;2024-02-04T07:30:26;23.40;;;14.38;;
83929;SDS011;73959;52.130;5.584;2024-02-04T07:32:53;28.20;;;15.05;;
83929;SDS011;73959;52.130;5.584;2024-02-04T07:35:19;29.23;;;16.20;;
83929;SDS011;73959;52.130;5.584;2024-02-04T07:37:45;29.08;;;15.18;;
83929;SDS011;73959;52.130;5.584;2024-02-04T07:40:11;25.58;;;13.98;;
83929;SDS011;73959;52.130;5.584;2024-02-04T07:42:37;23.05;;;13.80;;
83929;SDS011;73959;52.130;5.584;2024-02-04T07:45:03;21.13;;;13.25;;
83929;SDS011;73959;52.130;5.584;2024-02-04T07:47:33;27.35;;;13.70;;
83929;SDS011;73959;52.130;5.584;2024-02-04T07:49:59;25.48;;;13.40;;
83929;SDS011;73959;52.130;5.584;2024-02-04T07:52:25;23.70;;;13.98;;
83929;SDS011;73959;52.130;5.584;2024-02-04T07:54:51;20.63;;;13.20;;
83929;SDS011;73959;52.130;5.584;2024-02-04T07:57:17;20.65;;;11.82;;
83929;SDS011;73959;52.130;5.584;2024-02-04T07:59:43;20.30;;;11.45;;
83929;SDS011;73959;52.130;5.584;2024-02-04T08:02:09;23.08;;;11.63;;
83929;SDS011;73959;52.130;5.584;2024-02-04T08:04:35;23.65;;;11.60;;
83929;SDS011;73959;52.130;5.584;2024-02-04T08:07:01;20.73;;;10.68;;
83929;SDS011;73959;52.130;5.584;2024-02-04T08:09:27;16.70;;;10.10;;
83929;SDS011;73959;52.130;5.584;2024-02-04T08:11:53;14.73;;;8.57;;
83929;SDS011;73959;52.130;5.584;2024-02-04T08:14:19;17.17;;;8.65;;
83929;SDS011;73959;52.130;5.584;2024-02-04T08:16:45;12.07;;;7.25;;
83929;SDS011;73959;52.130;5.584;2024-02-04T08:19:13;16.48;;;7.72;;
83929;SDS011;73959;52.130;5.584;2024-02-04T08:21:39;12.45;;;6.10;;
83929;SDS011;73959;52.130;5.584;2024-02-04T08:24:05;14.75;;;5.95;;
83929;SDS011;73959;52.130;5.584;2024-02-04T08:26:31;14.55;;;6.80;;
83929;SDS011;73959;52.130;5.584;2024-02-04T08:28:57;9.82;;;5.40;;
83929;SDS011;73959;52.130;5.584;2024-02-04T08:31:23;11.60;;;6.75;;
83929;SDS011;73959;52.130;5.584;2024-02-04T08:33:49;11.90;;;5.40;;
83929;SDS011;73959;52.130;5.584;2024-02-04T08:36:15;12.82;;;5.00;;
83929;SDS011;73959;52.130;5.584;2024-02-04T08:38:41;12.57;;;5.60;;
83929;SDS011;73959;52.130;5.584;2024-02-04T08:41:07;8.82;;;4.97;;
83929;SDS011;73959;52.130;5.584;2024-02-04T08:43:33;12.48;;;5.80;;
83929;SDS011;73959;52.130;5.584;2024-02-04T08:45:59;10.93;;;5.57;;
83929;SDS011;73959;52.130;5.584;2024-02-04T08:48:25;12.13;;;5.10;;
83929;SDS011;73959;52.130;5.584;2024-02-04T08:50:51;9.02;;;4.78;;
83929;SDS011;73959;52.130;5.584;2024-02-04T08:53:19;12.02;;;4.80;;
83929;SDS011;73959;52.130;5.584;2024-02-04T08:55:45;9.43;;;4.75;;
83929;SDS011;73959;52.130;5.584;2024-02-04T08:58:11;9.38;;;4.18;;
83929;SDS011;73959;52.130;5.584;2024-02-04T09:00:37;9.75;;;4.70;;
83929;SDS011;73959;52.130;5.584;2024-02-04T09:03:03;8.95;;;4.50;;
83929;SDS011;73959;52.130;5.584;2024-02-04T09:05:29;7.90;;;4.43;;
83929;SDS011;73959;52.130;5.584;2024-02-04T09:07:55;8.18;;;4.68;;
83929;SDS011;73959;52.130;5.584;2024-02-04T09:10:21;8.82;;;4.97;;
83929;SDS011;73959;52.130;5.584;2024-02-04T09:12:47;12.65;;;5.10;;
83929;SDS011;73959;52.130;5.584;2024-02-04T09:15:13;11.88;;;6.40;;
83929;SDS011;73959;52.130;5.584;2024-02-04T09:17:39;16.90;;;7.65;;
83929;SDS011;73959;52.130;5.584;2024-02-04T09:20:06;12.75;;;8.00;;
83929;SDS011;73959;52.130;5.584;2024-02-04T09:22:33;16.25;;;8.75;;
83929;SDS011;73959;52.130;5.584;2024-02-04T09:24:59;11.95;;;9.90;;
83929;SDS011;73959;52.130;5.584;2024-02-04T09:27:25;14.40;;;10.23;;
83929;SDS011;73959;52.130;5.584;2024-02-04T09:29:51;16.65;;;9.93;;
83929;SDS011;73959;52.130;5.584;2024-02-04T09:32:20;19.35;;;11.02;;
83929;SDS011;73959;52.130;5.584;2024-02-04T09:34:46;15.98;;;9.75;;
83929;SDS011;73959;52.130;5.584;2024-02-04T09:37:12;11.40;;;8.98;;
83929;SDS011;73959;52.130;5.584;2024-02-04T09:39:38;15.80;;;9.25;;
83929;SDS011;73959;52.130;5.584;2024-02-04T09:42:04;16.77;;;8.23;;
83929;SDS011;73959;52.130;5.584;2024-02-04T09:44:30;17.45;;;7.18;;
83929;SDS011;73959;52.130;5.584;2024-02-04T09:46:57;11.30;;;6.82;;
83929;SDS011;73959;52.130;5.584;2024-02-04T09:49:25;12.45;;;6.78;;
83929;SDS011;73959;52.130;5.584;2024-02-04T09:51:51;10.80;;;6.68;;
83929;SDS011;73959;52.130;5.584;2024-02-04T09:54:17;9.98;;;6.50;;
83929;SDS011;73959;52.130;5.584;2024-02-04T09:56:44;12.35;;;6.03;;
83929;SDS011;73959;52.130;5.584;2024-02-04T09:59:10;11.23;;;5.90;;
83929;SDS011;73959;52.130;5.584;2024-02-04T10:01:36;11.48;;;5.63;;
83929;SDS011;73959;52.130;5.584;2024-02-04T10:04:02;7.85;;;5.55;;
83929;SDS011;73959;52.130;5.584;2024-02-04T10:06:28;9.02;;;4.57;;
83929;SDS011;73959;52.130;5.584;2024-02-04T10:08:54;7.60;;;4.38;;
83929;SDS011;73959;52.130;5.584;2024-02-04T10:11:21;14.07;;;4.70;;
83929;SDS011;73959;52.130;5.584;2024-02-04T10:13:50;8.55;;;4.47;;
83929;SDS011;73959;52.130;5.584;2024-02-04T10:16:16;11.38;;;4.43;;
83929;SDS011;73959;52.130;5.584;2024-02-04T10:18:46;7.22;;;4.38;;
83929;SDS011;73959;52.130;5.584;2024-02-04T10:21:19;8.45;;;4.00;;
83929;SDS011;73959;52.130;5.584;2024-02-04T10:23:48;11.90;;;4.07;;
83929;SDS011;73959;52.130;5.584;2024-02-04T10:26:14;7.05;;;3.22;;
83929;SDS011;73959;52.130;5.584;2024-02-04T10:28:41;9.05;;;3.53;;
83929;SDS011;73959;52.130;5.584;2024-02-04T10:31:10;11.23;;;3.35;;
83929;SDS011;73959;52.130;5.584;2024-02-04T10:33:36;10.32;;;5.93;;
83929;SDS011;73959;52.130;5.584;2024-02-04T10:36:03;10.57;;;4.75;;
83929;SDS011;73959;52.130;5.584;2024-02-04T10:38:29;8.25;;;2.90;;
83929;SDS011;73959;52.130;5.584;2024-02-04T10:40:55;10.43;;;3.88;;
83929;SDS011;73959;52.130;5.584;2024-02-04T10:43:21;6.70;;;3.28;;
83929;SDS011;73959;52.130;5.584;2024-02-04T10:45:49;7.30;;;2.55;;
83929;SDS011;73959;52.130;5.584;2024-02-04T10:48:19;6.93;;;2.80;;
83929;SDS011;73959;52.130;5.584;2024-02-04T10:50:46;6.20;;;2.30;;
83929;SDS011;73959;52.130;5.584;2024-02-04T10:53:15;7.50;;;2.72;;
83929;SDS011;73959;52.130;5.584;2024-02-04T10:55:43;11.65;;;6.10;;
83929;SDS011;73959;52.130;5.584;2024-02-04T10:58:11;3.53;;;2.40;;
83929;SDS011;73959;52.130;5.584;2024-02-04T11:00:38;4.95;;;2.00;;
83929;SDS011;73959;52.130;5.584;2024-02-04T11:03:05;6.72;;;2.10;;
83929;SDS011;73959;52.130;5.584;2024-02-04T11:05:32;4.50;;;2.25;;
83929;SDS011;73959;52.130;5.584;2024-02-04T11:08:00;2.47;;;1.83;;
83929;SDS011;73959;52.130;5.584;2024-02-04T11:10:26;2.45;;;1.65;;
83929;SDS011;73959;52.130;5.584;2024-02-04T11:12:53;5.72;;;2.22;;
83929;SDS011;73959;52.130;5.584;2024-02-04T11:15:19;3.97;;;2.10;;
83929;SDS011;73959;52.130;5.584;2024-02-04T11:17:53;3.55;;;1.33;;
83929;SDS011;73959;52.130;5.584;2024-02-04T11:23:01;5.25;;;2.05;;
83929;SDS011;73959;52.130;5.584;2024-02-04T11:25:44;3.60;;;1.40;;
83929;SDS011;73959;52.130;5.584;2024-02-04T11:28:11;4.07;;;1.48;;
83929;SDS011;73959;52.130;5.584;2024-02-04T11:30:37;2.97;;;1.80;;
83929;SDS011;73959;52.130;5.584;2024-02-04T11:33:04;2.88;;;1.92;;
83929;SDS011;73959;52.130;5.584;2024-02-04T11:35:30;2.92;;;1.85;;
83929;SDS011;73959;52.130;5.584;2024-02-04T11:37:56;3.47;;;1.98;;
83929;SDS011;73959;52.130;5.584;2024-02-04T11:40:23;5.13;;;2.00;;
83929;SDS011;73959;52.130;5.584;2024-02-04T11:42:49;2.05;;;1.40;;
83929;SDS011;73959;52.130;5.584;2024-02-04T11:45:15;2.50;;;2.22;;
83929;SDS011;73959;52.130;5.584;2024-02-04T11:47:41;2.10;;;1.80;;
83929;SDS011;73959;52.130;5.584;2024-02-04T11:50:08;4.38;;;2.47;;
83929;SDS011;73959;52.130;5.584;2024-02-04T11:52:34;2.90;;;2.30;;
83929;SDS011;73959;52.130;5.584;2024-02-04T11:55:00;3.88;;;2.22;;
83929;SDS011;73959;52.130;5.584;2024-02-04T11:57:26;4.43;;;2.72;;
83929;SDS011;73959;52.130;5.584;2024-02-04T11:59:53;5.63;;;2.65;;
83929;SDS011;73959;52.130;5.584;2024-02-04T12:02:23;3.78;;;3.05;;
83929;SDS011;73959;52.130;5.584;2024-02-04T12:04:49;6.72;;;3.33;;
83929;SDS011;73959;52.130;5.584;2024-02-04T12:07:16;4.95;;;3.15;;
83929;SDS011;73959;52.130;5.584;2024-02-04T12:09:42;5.80;;;3.60;;
83929;SDS011;73959;52.130;5.584;2024-02-04T12:12:08;8.70;;;3.92;;
83929;SDS011;73959;52.130;5.584;2024-02-04T12:14:34;7.30;;;4.10;;
83929;SDS011;73959;52.130;5.584;2024-02-04T12:17:07;7.03;;;4.68;;
83929;SDS011;73959;52.130;5.584;2024-02-04T12:19:34;10.25;;;4.80;;
83929;SDS011;73959;52.130;5.584;2024-02-04T12:22:00;9.20;;;3.97;;
83929;SDS011;73959;52.130;5.584;2024-02-04T12:24:26;7.43;;;4.90;;
83929;SDS011;73959;52.130;5.584;2024-02-04T12:26:52;9.68;;;4.82;;
83929;SDS011;73959;52.130;5.584;2024-02-04T12:29:18;10.13;;;5.65;;
83929;SDS011;73959;52.130;5.584;2024-02-04T12:31:44;10.82;;;5.78;;
83929;SDS011;73959;52.130;5.584;2024-02-04T12:34:10;8.77;;;5.63;;
83929;SDS011;73959;52.130;5.584;2024-02-04T12:36:37;11.27;;;5.32;;
83929;SDS011;73959;52.130;5.584;2024-02-04T12:39:03;9.93;;;5.78;;
83929;SDS011;73959;52.130;5.584;2024-02-04T12:41:29;8.27;;;4.85;;
83929;SDS011;73959;52.130;5.584;2024-02-04T12:43:56;9.52;;;5.13;;
83929;SDS011;73959;52.130;5.584;2024-02-04T12:46:23;7.68;;;4.90;;
83929;SDS011;73959;52.130;5.584;2024-02-04T12:48:52;11.52;;;4.28;;
83929;SDS011;73959;52.130;5.584;2024-02-04T12:51:28;10.23;;;4.22;;
83929;SDS011;73959;52.130;5.584;2024-02-04T12:56:51;9.18;;;3.97;;
83929;SDS011;73959;52.130;5.584;2024-02-04T12:59:28;8.82;;;3.55;;
83929;SDS011;73959;52.130;5.584;2024-02-04T13:01:58;8.70;;;3.42;;
83929;SDS011;73959;52.130;5.584;2024-02-04T13:04:25;6.15;;;3.20;;
83929;SDS011;73959;52.130;5.584;2024-02-04T13:06:52;12.55;;;5.32;;
83929;SDS011;73959;52.130;5.584;2024-02-04T13:09:18;11.88;;;4.60;;
83929;SDS011;73959;52.130;5.584;2024-02-04T13:11:45;11.90;;;5.80;;
83929;SDS011;73959;52.130;5.584;2024-02-04T13:14:11;10.50;;;5.55;;
83929;SDS011;73959;52.130;5.584;2024-02-04T13:16:37;13.32;;;5.13;;
83929;SDS011;73959;52.130;5.584;2024-02-04T13:19:03;9.52;;;5.10;;
83929;SDS011;73959;52.130;5.584;2024-02-04T13:21:29;10.55;;;4.97;;
83929;SDS011;73959;52.130;5.584;2024-02-04T13:23:55;11.27;;;5.07;;
83929;SDS011;73959;52.130;5.584;2024-02-04T13:26:21;7.47;;;4.60;;
83929;SDS011;73959;52.130;5.584;2024-02-04T13:28:47;11.18;;;4.25;;
83929;SDS011;73959;52.130;5.584;2024-02-04T13:31:13;10.25;;;4.47;;
83929;SDS011;73959;52.130;5.584;2024-02-04T13:33:39;7.78;;;4.38;;
83929;SDS011;73959;52.130;5.584;2024-02-04T13:36:08;8.23;;;4.18;;
83929;SDS011;73959;52.130;5.584;2024-02-04T13:38:35;10.80;;;3.85;;
83929;SDS011;73959;52.130;5.584;2024-02-04T13:41:02;8.75;;;3.85;;
83929;SDS011;73959;52.130;5.584;2024-02-04T13:43:31;10.45;;;4.28;;
83929;SDS011;73959;52.130;5.584;2024-02-04T13:45:57;11.45;;;4.03;;
83929;SDS011;73959;52.130;5.584;2024-02-04T13:48:23;8.60;;;3.65;;
83929;SDS011;73959;52.130;5.584;2024-02-04T13:50:50;7.85;;;3.40;;
83929;SDS011;73959;52.130;5.584;2024-02-04T13:53:19;10.00;;;4.20;;
83929;SDS011;73959;52.130;5.584;2024-02-04T13:55:45;7.38;;;4.00;;
83929;SDS011;73959;52.130;5.584;2024-02-04T13:58:11;12.30;;;4.47;;
83929;SDS011;73959;52.130;5.584;2024-02-04T14:00:37;9.48;;;4.55;;
83929;SDS011;73959;52.130;5.584;2024-02-04T14:03:03;7.40;;;4.32;;
83929;SDS011;73959;52.130;5.584;2024-02-04T14:05:29;10.20;;;4.50;;
83929;SDS011;73959;52.130;5.584;2024-02-04T14:07:55;8.65;;;4.32;;
83929;SDS011;73959;52.130;5.584;2024-02-04T14:10:21;8.48;;;4.28;;
83929;SDS011;73959;52.130;5.584;2024-02-04T14:12:47;8.35;;;4.82;;
83929;SDS011;73959;52.130;5.584;2024-02-04T14:15:13;13.32;;;5.47;;
83929;SDS011;73959;52.130;5.584;2024-02-04T14:17:39;13.40;;;5.53;;
83929;SDS011;73959;52.130;5.584;2024-02-04T14:20:06;11.95;;;5.35;;
83929;SDS011;73959;52.130;5.584;2024-02-04T14:22:32;12.32;;;5.65;;
83929;SDS011;73959;52.130;5.584;2024-02-04T14:24:58;17.55;;;6.32;;
83929;SDS011;73959;52.130;5.584;2024-02-04T14:27:25;15.57;;;6.63;;
83929;SDS011;73959;52.130;5.584;2024-02-04T14:29:51;17.23;;;7.22;;
83929;SDS011;73959;52.130;5.584;2024-02-04T14:32:17;16.83;;;7.50;;
83929;SDS011;73959;52.130;5.584;2024-02-04T14:34:43;17.38;;;7.60;;
83929;SDS011;73959;52.130;5.584;2024-02-04T14:37:09;15.27;;;7.38;;
83929;SDS011;73959;52.130;5.584;2024-02-04T14:39:36;14.95;;;6.38;;